Time;durP1;ratioP1;P1;durP2;ratioP2;P2;SDS_P1;SDS_P2;PMS_P1;PMS_P2;Temp;Humidity;BMP_temperature;BMP_pressure;BME280_temperature;BME280_humidity;BME280_pressure;Samples;Min_cycle;Max_cycle;Signal;HPM_P1;HPM_P2
2023/05/13 00:02:16;;;;;;;1.60;1.60;;;;;;;;;;4188363;28;20047;-59
2023/05/13 00:04:37;;;;;;;1.63;1.63;;;;;;;;;;4188243;28;20048;-58
2023/05/13 00:06:57;;;;;;;1.90;1.80;;;;;;;;;;4188409;28;20281;-59
2023/05/13 00:09:17;;;;;;;5.32;2.30;;;;;;;;;;4189850;28;20083;-59
2023/05/13 00:11:37;;;;;;;2.78;2.58;;;;;;;;;;4188894;28;20044;-58
2023/05/13 00:13:57;;;;;;;3.53;3.33;;;;;;;;;;4190552;28;20059;-59
2023/05/13 00:16:18;;;;;;;2.47;2.38;;;;;;;;;;4192278;28;20417;-58
2023/05/13 00:18:39;;;;;;;2.38;2.20;;;;;;;;;;4189834;28;20107;-58
2023/05/13 00:20:59;;;;;;;2.38;2.17;;;;;;;;;;4189803;28;20121;-58
2023/05/13 00:23:19;;;;;;;2.80;2.80;;;;;;;;;;4193211;28;20048;-58
2023/05/13 00:25:40;;;;;;;2.17;2.17;;;;;;;;;;4192835;28;20105;-58
2023/05/13 00:28:01;;;;;;;2.30;2.30;;;;;;;;;;4191175;28;20255;-58
2023/05/13 00:30:21;;;;;;;4.20;1.98;;;;;;;;;;4190798;28;20044;-58
2023/05/13 00:32:42;;;;;;;1.55;1.45;;;;;;;;;;4193426;28;20064;-58
2023/05/13 00:35:02;;;;;;;1.50;1.48;;;;;;;;;;4193238;28;20083;-58
2023/05/13 00:37:23;;;;;;;1.40;1.40;;;;;;;;;;4188944;28;20048;-59
2023/05/13 00:39:43;;;;;;;1.60;1.60;;;;;;;;;;4190984;28;20228;-59
2023/05/13 00:42:03;;;;;;;2.95;2.15;;;;;;;;;;4193446;28;20093;-59
2023/05/13 00:44:24;;;;;;;1.60;1.60;;;;;;;;;;4193088;28;20048;-59
2023/05/13 00:46:44;;;;;;;2.05;1.40;;;;;;;;;;4190480;28;20098;-59
2023/05/13 00:49:05;;;;;;;1.50;1.40;;;;;;;;;;4192053;28;20108;-59
2023/05/13 00:51:25;;;;;;;1.30;1.30;;;;;;;;;;4192478;28;20048;-59
2023/05/13 00:53:45;;;;;;;1.77;1.67;;;;;;;;;;4192553;28;20044;-58
2023/05/13 00:56:06;;;;;;;1.70;1.40;;;;;;;;;;4190656;28;20379;-58
2023/05/13 00:58:26;;;;;;;1.67;1.67;;;;;;;;;;4192225;28;20083;-59
2023/05/13 01:00:49;;;;;;;2.28;1.63;;;;;;;;;;4191951;28;20043;-58
2023/05/13 01:03:12;;;;;;;1.35;1.35;;;;;;;;;;4190489;28;20366;-58
2023/05/13 01:05:41;;;;;;;35.00;2.30;;;;;;;;;;4189059;28;20040;-58
2023/05/13 01:08:19;;;;;;;3.15;1.67;;;;;;;;;;4191051;28;20101;-58
2023/05/13 01:11:01;;;;;;;1.70;1.60;;;;;;;;;;4188724;28;20056;-59
2023/05/13 01:13:26;;;;;;;2.05;1.70;;;;;;;;;;4188292;28;20094;-58
2023/05/13 01:15:53;;;;;;;2.08;2.00;;;;;;;;;;4189152;28;20056;-58
2023/05/13 01:18:23;;;;;;;4.18;2.47;;;;;;;;;;4190674;28;20358;-58
2023/05/13 01:20:44;;;;;;;2.65;2.55;;;;;;;;;;4193035;28;20036;-58
2023/05/13 01:23:05;;;;;;;2.75;2.70;;;;;;;;;;4192294;28;20052;-58
2023/05/13 01:25:25;;;;;;;105.13;6.43;;;;;;;;;;4193239;28;20267;-59
2023/05/13 01:27:45;;;;;;;3.80;2.63;;;;;;;;;;4193611;28;20047;-58
2023/05/13 01:30:06;;;;;;;18.20;4.10;;;;;;;;;;4192273;28;20398;-58
2023/05/13 01:32:26;;;;;;;22.83;3.33;;;;;;;;;;4192130;28;20052;-58
2023/05/13 01:34:46;;;;;;;35.50;3.85;;;;;;;;;;4192568;28;20052;-59
2023/05/13 01:37:07;;;;;;;2.28;2.22;;;;;;;;;;4192075;28;20089;-58
2023/05/13 01:39:27;;;;;;;1.90;1.90;;;;;;;;;;4191290;28;20307;-59
2023/05/13 01:41:48;;;;;;;3.03;2.92;;;;;;;;;;4191068;28;20052;-58
2023/05/13 01:44:08;;;;;;;3.28;3.17;;;;;;;;;;4190763;28;20465;-59
2023/05/13 01:46:29;;;;;;;20.08;3.42;;;;;;;;;;4190955;28;20055;-58
2023/05/13 01:48:49;;;;;;;42.17;4.18;;;;;;;;;;4191083;28;20059;-58
2023/05/13 01:51:09;;;;;;;2.50;2.50;;;;;;;;;;4192627;28;20146;-58
2023/05/13 01:53:30;;;;;;;7.03;3.47;;;;;;;;;;4195187;28;20166;-58
2023/05/13 01:55:50;;;;;;;58.67;4.72;;;;;;;;;;4192365;28;20047;-58
2023/05/13 01:58:10;;;;;;;263.00;11.43;;;;;;;;;;4191933;28;20330;-59
2023/05/13 02:00:30;;;;;;;80.57;5.28;;;;;;;;;;4193512;28;20308;-59
2023/05/13 02:02:50;;;;;;;2.33;2.15;;;;;;;;;;4194921;28;20397;-58
2023/05/13 02:05:11;;;;;;;57.55;4.05;;;;;;;;;;4192117;28;20311;-59
2023/05/13 02:07:31;;;;;;;57.58;4.68;;;;;;;;;;4191284;28;20043;-58
2023/05/13 02:09:58;;;;;;;29.45;3.10;;;;;;;;;;4194160;28;20405;-59
2023/05/13 02:12:18;;;;;;;2.50;2.40;;;;;;;;;;4193362;28;20122;-58
2023/05/13 02:14:38;;;;;;;2.00;1.80;;;;;;;;;;4193390;28;20047;-59
2023/05/13 02:16:58;;;;;;;1.73;1.73;;;;;;;;;;4192346;28;20112;-58
2023/05/13 02:19:19;;;;;;;2.08;2.05;;;;;;;;;;4194219;28;20113;-59
2023/05/13 02:21:40;;;;;;;2.00;1.90;;;;;;;;;;4193867;28;20075;-58
2023/05/13 02:24:00;;;;;;;11.23;2.63;;;;;;;;;;4192910;28;20052;-59
2023/05/13 02:26:21;;;;;;;6.07;2.50;;;;;;;;;;4191829;28;20095;-58
2023/05/13 02:28:41;;;;;;;2.63;2.63;;;;;;;;;;4193928;28;20051;-59
2023/05/13 02:31:01;;;;;;;6.32;2.65;;;;;;;;;;4190733;28;20069;-58
2023/05/13 02:33:22;;;;;;;13.88;2.72;;;;;;;;;;4193211;28;20236;-58
2023/05/13 02:35:42;;;;;;;3.05;3.00;;;;;;;;;;4189585;28;20090;-58
2023/05/13 02:38:03;;;;;;;37.25;3.35;;;;;;;;;;4190904;28;20048;-58
2023/05/13 02:40:23;;;;;;;15.40;2.80;;;;;;;;;;4189976;28;20048;-58
2023/05/13 02:42:43;;;;;;;2.55;2.45;;;;;;;;;;4191250;28;20062;-58
2023/05/13 02:45:03;;;;;;;4.65;2.80;;;;;;;;;;4191650;28;20063;-58
2023/05/13 02:47:23;;;;;;;5.72;2.78;;;;;;;;;;4190208;28;20087;-59
2023/05/13 02:49:43;;;;;;;2.83;2.75;;;;;;;;;;4191960;28;20078;-59
2023/05/13 02:52:04;;;;;;;2.70;2.67;;;;;;;;;;4189210;28;20059;-58
2023/05/13 02:54:24;;;;;;;4.40;4.00;;;;;;;;;;4177432;28;20075;-58
2023/05/13 02:56:44;;;;;;;7.32;3.38;;;;;;;;;;4189177;28;20367;-59
2023/05/13 02:59:04;;;;;;;22.33;4.15;;;;;;;;;;4192712;28;20043;-58
2023/05/13 03:01:25;;;;;;;21.50;5.05;;;;;;;;;;4192103;28;20056;-58
2023/05/13 03:03:46;;;;;;;33.55;4.40;;;;;;;;;;4192464;28;20232;-58
2023/05/13 03:06:06;;;;;;;4.20;3.45;;;;;;;;;;4189460;28;20052;-58
2023/05/13 03:08:26;;;;;;;3.33;3.17;;;;;;;;;;4191983;28;20110;-59
2023/05/13 03:10:47;;;;;;;3.20;3.20;;;;;;;;;;4190934;28;20117;-58
2023/05/13 03:13:07;;;;;;;17.77;3.42;;;;;;;;;;4191097;28;20052;-58
2023/05/13 03:15:27;;;;;;;6.57;3.78;;;;;;;;;;4191129;28;20062;-58
2023/05/13 03:17:47;;;;;;;4.35;3.95;;;;;;;;;;4193081;28;20116;-58
2023/05/13 03:20:08;;;;;;;2.88;2.67;;;;;;;;;;4190422;28;20040;-58
2023/05/13 03:22:28;;;;;;;3.45;2.95;;;;;;;;;;4190488;28;20067;-59
2023/05/13 03:24:48;;;;;;;4.10;2.45;;;;;;;;;;4189812;28;20090;-58
2023/05/13 03:27:08;;;;;;;2.67;2.50;;;;;;;;;;4189875;28;20112;-58
2023/05/13 03:29:29;;;;;;;2.38;2.28;;;;;;;;;;4191434;28;20064;-58
2023/05/13 03:31:49;;;;;;;2.45;2.45;;;;;;;;;;4191259;28;20132;-58
2023/05/13 03:34:10;;;;;;;2.90;2.80;;;;;;;;;;4193092;28;20048;-58
2023/05/13 03:36:31;;;;;;;2.85;2.85;;;;;;;;;;4194435;28;20071;-58
2023/05/13 03:38:51;;;;;;;3.20;2.95;;;;;;;;;;4189196;28;20048;-58
2023/05/13 03:41:11;;;;;;;2.90;2.80;;;;;;;;;;4191662;28;20044;-58
2023/05/13 03:43:32;;;;;;;2.70;2.60;;;;;;;;;;4193377;28;20248;-58
2023/05/13 03:45:52;;;;;;;4.38;3.30;;;;;;;;;;4191604;28;20095;-59
2023/05/13 03:48:12;;;;;;;3.30;3.00;;;;;;;;;;4189009;28;20056;-59
2023/05/13 03:50:32;;;;;;;2.55;2.45;;;;;;;;;;4192310;28;20059;-59
2023/05/13 03:52:52;;;;;;;2.28;2.28;;;;;;;;;;4193351;28;20090;-59
2023/05/13 03:55:13;;;;;;;2.63;2.53;;;;;;;;;;4191476;28;20406;-58
2023/05/13 03:57:34;;;;;;;2.65;2.50;;;;;;;;;;4188377;28;20386;-58
2023/05/13 03:59:54;;;;;;;2.70;2.50;;;;;;;;;;4192241;28;20048;-59
2023/05/13 04:02:14;;;;;;;3.13;3.03;;;;;;;;;;4189859;28;20344;-58
2023/05/13 04:04:34;;;;;;;2.78;2.67;;;;;;;;;;4188017;28;20247;-59
2023/05/13 04:06:54;;;;;;;2.90;2.70;;;;;;;;;;4190190;28;20055;-59
2023/05/13 04:09:14;;;;;;;3.42;3.33;;;;;;;;;;4189670;28;20043;-58
2023/05/13 04:11:34;;;;;;;4.05;3.75;;;;;;;;;;4190517;28;20363;-59
2023/05/13 04:13:55;;;;;;;3.35;3.10;;;;;;;;;;4190590;28;20096;-58
2023/05/13 04:16:16;;;;;;;3.28;3.08;;;;;;;;;;4190725;28;20044;-58
2023/05/13 04:18:36;;;;;;;4.88;4.40;;;;;;;;;;4190755;28;20044;-59
2023/05/13 04:20:57;;;;;;;4.22;4.03;;;;;;;;;;4190718;28;20080;-58
2023/05/13 04:23:17;;;;;;;4.18;4.00;;;;;;;;;;4190231;28;20051;-58
2023/05/13 04:25:37;;;;;;;5.57;4.40;;;;;;;;;;4190933;28;20059;-58
2023/05/13 04:28:00;;;;;;;2.90;2.70;;;;;;;;;;4190757;28;20083;-58
2023/05/13 04:30:20;;;;;;;5.15;3.03;;;;;;;;;;4191163;28;20048;-58
2023/05/13 04:32:40;;;;;;;3.05;2.80;;;;;;;;;;4190524;28;20056;-58
2023/05/13 04:35:00;;;;;;;2.45;2.45;;;;;;;;;;4191139;28;20044;-58
2023/05/13 04:37:20;;;;;;;5.28;3.30;;;;;;;;;;4190590;28;20263;-58
2023/05/13 04:39:41;;;;;;;4.93;3.00;;;;;;;;;;4189275;28;20048;-58
2023/05/13 04:42:01;;;;;;;3.25;3.03;;;;;;;;;;4191205;28;20048;-58
2023/05/13 04:44:21;;;;;;;52.78;6.07;;;;;;;;;;4191891;28;20087;-59
2023/05/13 04:46:43;;;;;;;219.65;13.00;;;;;;;;;;4191403;28;20048;-59
2023/05/13 04:49:03;;;;;;;36.95;4.55;;;;;;;;;;4189515;28;20418;-59
2023/05/13 04:51:24;;;;;;;3.10;3.00;;;;;;;;;;4189864;28;20112;-58
2023/05/13 04:53:45;;;;;;;92.47;6.57;;;;;;;;;;4189057;28;20047;-58
2023/05/13 04:56:05;;;;;;;4.22;3.30;;;;;;;;;;4190536;28;20086;-58
2023/05/13 04:58:26;;;;;;;2.88;2.78;;;;;;;;;;4190043;28;20155;-58
2023/05/13 05:00:46;;;;;;;3.30;3.20;;;;;;;;;;4190117;28;20051;-58
2023/05/13 05:03:06;;;;;;;4.28;4.07;;;;;;;;;;4189624;28;20052;-58
2023/05/13 05:05:27;;;;;;;2.78;2.72;;;;;;;;;;4189281;28;20083;-58
2023/05/13 05:07:47;;;;;;;3.10;2.85;;;;;;;;;;4188746;28;20067;-58
2023/05/13 05:10:08;;;;;;;2.58;2.42;;;;;;;;;;4191294;28;20048;-58
2023/05/13 05:12:30;;;;;;;2.72;2.60;;;;;;;;;;4193671;28;20127;-58
2023/05/13 05:14:50;;;;;;;2.83;2.83;;;;;;;;;;4195331;28;20323;-58
2023/05/13 05:17:10;;;;;;;3.15;2.92;;;;;;;;;;4189950;28;20052;-58
2023/05/13 05:19:30;;;;;;;3.17;2.97;;;;;;;;;;4192100;28;20067;-58
2023/05/13 05:21:53;;;;;;;2.38;2.17;;;;;;;;;;4194089;28;20105;-58
2023/05/13 05:24:13;;;;;;;2.90;2.63;;;;;;;;;;4192479;28;20240;-58
2023/05/13 05:26:33;;;;;;;2.60;2.45;;;;;;;;;;4189262;28;20044;-58
2023/05/13 05:28:53;;;;;;;2.80;2.80;;;;;;;;;;4188903;28;20363;-58
2023/05/13 05:31:13;;;;;;;2.72;2.72;;;;;;;;;;4188949;28;20374;-58
2023/05/13 05:33:34;;;;;;;3.05;2.85;;;;;;;;;;4189014;28;20048;-58
2023/05/13 05:35:54;;;;;;;2.78;2.67;;;;;;;;;;4189474;28;20436;-59
2023/05/13 05:38:14;;;;;;;3.85;3.65;;;;;;;;;;4189534;28;20251;-58
2023/05/13 05:40:37;;;;;;;3.00;2.90;;;;;;;;;;4189178;28;20048;-58
2023/05/13 05:42:57;;;;;;;2.60;2.53;;;;;;;;;;4189362;28;20083;-58
2023/05/13 05:45:17;;;;;;;3.30;3.20;;;;;;;;;;4190239;28;20244;-58
2023/05/13 05:47:37;;;;;;;4.22;3.08;;;;;;;;;;4190454;28;20060;-58
2023/05/13 05:49:57;;;;;;;3.17;2.92;;;;;;;;;;4189835;28;20389;-58
2023/05/13 05:52:17;;;;;;;3.05;2.90;;;;;;;;;;4189845;28;20059;-58
2023/05/13 05:54:37;;;;;;;9.82;2.60;;;;;;;;;;4190808;28;20084;-58
2023/05/13 05:56:57;;;;;;;5.10;3.10;;;;;;;;;;4191416;28;20052;-58
2023/05/13 05:59:18;;;;;;;2.30;2.30;;;;;;;;;;4188073;28;20051;-58
2023/05/13 06:01:38;;;;;;;2.97;2.78;;;;;;;;;;4188208;28;20067;-58
2023/05/13 06:03:59;;;;;;;4.20;2.50;;;;;;;;;;4190713;28;20391;-58
2023/05/13 06:06:19;;;;;;;3.65;2.80;;;;;;;;;;4194302;28;20087;-58
2023/05/13 06:08:39;;;;;;;2.33;2.22;;;;;;;;;;4192316;28;20044;-59
2023/05/13 06:11:02;;;;;;;2.53;2.42;;;;;;;;;;4190493;28;20063;-59
2023/05/13 06:13:25;;;;;;;2.15;2.10;;;;;;;;;;4193884;28;20044;-58
2023/05/13 06:15:45;;;;;;;2.35;2.15;;;;;;;;;;4193948;28;20048;-58
2023/05/13 06:18:06;;;;;;;3.80;1.50;;;;;;;;;;4191773;28;20375;-58
2023/05/13 06:20:26;;;;;;;2.47;2.28;;;;;;;;;;4191725;28;20101;-58
2023/05/13 06:22:46;;;;;;;2.25;1.95;;;;;;;;;;4193444;28;20108;-59
2023/05/13 06:25:07;;;;;;;1.63;1.52;;;;;;;;;;4191980;28;20052;-59
2023/05/13 06:27:28;;;;;;;1.80;1.70;;;;;;;;;;4192688;28;20064;-59
2023/05/13 06:29:48;;;;;;;2.08;2.08;;;;;;;;;;4191454;28;20232;-58
2023/05/13 06:32:08;;;;;;;1.48;1.48;;;;;;;;;;4192189;28;20290;-58
2023/05/13 06:34:28;;;;;;;5.15;1.98;;;;;;;;;;4192236;28;20048;-58
2023/05/13 06:36:48;;;;;;;1.60;1.60;;;;;;;;;;4192037;28;20080;-58
2023/05/13 06:39:10;;;;;;;1.55;1.55;;;;;;;;;;4191221;28;20330;-59
2023/05/13 06:41:30;;;;;;;1.67;1.60;;;;;;;;;;4191212;28;20063;-58
2023/05/13 06:43:50;;;;;;;1.42;1.42;;;;;;;;;;4190495;28;20095;-58
2023/05/13 06:46:10;;;;;;;3.42;1.30;;;;;;;;;;4190292;28;20248;-58
2023/05/13 06:48:31;;;;;;;2.25;1.60;;;;;;;;;;4190677;28;20371;-59
2023/05/13 06:50:51;;;;;;;1.73;1.73;;;;;;;;;;4191939;28;20393;-59
2023/05/13 06:53:11;;;;;;;1.60;1.60;;;;;;;;;;4190639;28;20099;-58
2023/05/13 06:55:34;;;;;;;1.35;1.30;;;;;;;;;;4190067;28;20043;-58
2023/05/13 06:57:55;;;;;;;1.70;1.20;;;;;;;;;;4191169;28;20047;-58
2023/05/13 07:00:16;;;;;;;2.38;1.17;;;;;;;;;;4190868;28;20266;-57
2023/05/13 07:02:36;;;;;;;1.02;1.02;;;;;;;;;;4191030;28;20052;-57
2023/05/13 07:04:56;;;;;;;1.30;1.30;;;;;;;;;;4191817;28;20087;-57
2023/05/13 07:07:17;;;;;;;3.30;1.50;;;;;;;;;;4191850;28;20052;-57
2023/05/13 07:09:37;;;;;;;1.88;1.30;;;;;;;;;;4191162;28;20048;-59
2023/05/13 07:11:57;;;;;;;2.58;1.48;;;;;;;;;;4191786;28;20342;-58
2023/05/13 07:14:17;;;;;;;3.33;2.40;;;;;;;;;;4192848;28;20405;-56
2023/05/13 07:16:37;;;;;;;1.13;1.13;;;;;;;;;;4191769;28;20047;-59
2023/05/13 07:18:57;;;;;;;1.13;1.13;;;;;;;;;;4191496;28;20048;-60
2023/05/13 07:21:18;;;;;;;1.60;1.20;;;;;;;;;;4192659;28;20048;-59
2023/05/13 07:23:38;;;;;;;0.95;0.95;;;;;;;;;;4191198;28;20098;-59
2023/05/13 07:25:59;;;;;;;2.55;0.95;;;;;;;;;;4191461;28;20105;-59
2023/05/13 07:28:19;;;;;;;1.00;1.00;;;;;;;;;;4192655;28;20255;-59
2023/05/13 07:30:40;;;;;;;1.00;1.00;;;;;;;;;;4193561;28;20075;-59
2023/05/13 07:33:00;;;;;;;1.10;1.10;;;;;;;;;;4191421;28;20143;-59
2023/05/13 07:35:21;;;;;;;2.75;1.00;;;;;;;;;;4188823;28;20048;-59
2023/05/13 07:37:41;;;;;;;1.10;1.10;;;;;;;;;;4193076;28;20082;-59
2023/05/13 07:40:02;;;;;;;0.93;0.93;;;;;;;;;;4192225;28;20044;-60
2023/05/13 07:42:24;;;;;;;0.90;0.90;;;;;;;;;;4191608;28;20105;-59
2023/05/13 07:44:45;;;;;;;1.00;1.00;;;;;;;;;;4189458;28;20093;-60
2023/05/13 07:47:05;;;;;;;1.00;1.00;;;;;;;;;;4192879;28;20048;-59
2023/05/13 07:49:26;;;;;;;0.93;0.93;;;;;;;;;;4191642;28;20109;-60
2023/05/13 07:51:46;;;;;;;0.95;0.95;;;;;;;;;;4191771;28;20306;-60
2023/05/13 07:54:06;;;;;;;0.98;0.90;;;;;;;;;;4191562;28;20047;-60
2023/05/13 07:56:26;;;;;;;1.00;1.00;;;;;;;;;;4191757;28;20094;-60
2023/05/13 07:58:48;;;;;;;0.90;0.90;;;;;;;;;;4189810;28;20052;-59
2023/05/13 08:01:08;;;;;;;0.88;0.88;;;;;;;;;;4190330;28;20416;-60
2023/05/13 08:03:28;;;;;;;1.00;1.00;;;;;;;;;;4190485;28;20100;-60
2023/05/13 08:05:49;;;;;;;1.75;0.93;;;;;;;;;;4190520;28;20078;-60
2023/05/13 08:08:09;;;;;;;0.90;0.90;;;;;;;;;;4189291;28;20048;-60
2023/05/13 08:10:29;;;;;;;1.00;1.00;;;;;;;;;;4189016;28;20074;-59
2023/05/13 08:12:56;;;;;;;1.00;0.90;;;;;;;;;;4190743;28;20052;-59
2023/05/13 08:15:16;;;;;;;2.58;1.00;;;;;;;;;;4190372;28;20363;-60
2023/05/13 08:17:36;;;;;;;1.00;1.00;;;;;;;;;;4189282;28;20048;-59
2023/05/13 08:19:57;;;;;;;1.00;1.00;;;;;;;;;;4188872;28;20047;-59
2023/05/13 08:22:17;;;;;;;3.70;1.00;;;;;;;;;;4188531;28;20047;-59
2023/05/13 08:24:39;;;;;;;0.90;0.90;;;;;;;;;;4189882;28;20068;-59
2023/05/13 08:26:59;;;;;;;1.30;0.95;;;;;;;;;;4188569;28;20047;-59
2023/05/13 08:29:19;;;;;;;1.00;1.00;;;;;;;;;;4188487;28;20048;-59
2023/05/13 08:31:40;;;;;;;1.17;1.00;;;;;;;;;;4189219;28;20055;-59
2023/05/13 08:34:00;;;;;;;0.90;0.90;;;;;;;;;;4189581;28;20043;-59
2023/05/13 08:36:21;;;;;;;1.00;1.00;;;;;;;;;;4189395;28;20089;-59
2023/05/13 08:38:42;;;;;;;0.90;0.90;;;;;;;;;;4190130;28;20071;-59
2023/05/13 08:41:06;;;;;;;1.00;1.00;;;;;;;;;;4191284;28;20086;-59
2023/05/13 08:43:27;;;;;;;0.98;0.90;;;;;;;;;;4190343;28;20079;-59
2023/05/13 08:45:47;;;;;;;5.03;1.33;;;;;;;;;;4190397;28;20087;-59
2023/05/13 08:48:08;;;;;;;1.42;1.00;;;;;;;;;;4191678;28;20044;-59
2023/05/13 08:50:29;;;;;;;0.90;0.90;;;;;;;;;;4191875;28;20108;-59
2023/05/13 08:52:53;;;;;;;0.90;0.90;;;;;;;;;;4189497;28;20052;-59
2023/05/13 08:55:13;;;;;;;5.60;1.10;;;;;;;;;;4190809;28;20056;-59
2023/05/13 08:57:33;;;;;;;1.23;0.90;;;;;;;;;;4192648;28;20039;-59
2023/05/13 08:59:53;;;;;;;0.80;0.80;;;;;;;;;;4193109;28;20101;-60
2023/05/13 09:02:14;;;;;;;0.90;0.90;;;;;;;;;;4189457;28;20235;-59
2023/05/13 09:04:36;;;;;;;1.95;0.85;;;;;;;;;;4191481;28;20236;-59
2023/05/13 09:06:57;;;;;;;0.85;0.85;;;;;;;;;;4193418;28;20083;-60
2023/05/13 09:09:18;;;;;;;0.90;0.90;;;;;;;;;;4194262;28;20079;-60
2023/05/13 09:11:39;;;;;;;0.80;0.80;;;;;;;;;;4190107;28;20104;-60
2023/05/13 09:14:00;;;;;;;0.80;0.80;;;;;;;;;;4192843;28;20052;-60
2023/05/13 09:16:22;;;;;;;0.80;0.80;;;;;;;;;;4193051;28;20252;-60
2023/05/13 09:18:42;;;;;;;1.40;1.40;;;;;;;;;;4193098;28;20390;-60
2023/05/13 09:21:21;;;;;;;0.80;0.80;;;;;;;;;;4190306;28;20209;-60
2023/05/13 09:23:41;;;;;;;0.80;0.80;;;;;;;;;;4192281;28;20051;-60
2023/05/13 09:26:01;;;;;;;1.20;0.70;;;;;;;;;;4191948;28;20139;-60
2023/05/13 09:28:22;;;;;;;1.65;0.88;;;;;;;;;;4188046;28;20056;-60
2023/05/13 09:30:44;;;;;;;0.80;0.80;;;;;;;;;;4189780;28;20083;-60
2023/05/13 09:33:12;;;;;;;0.80;0.80;;;;;;;;;;4190649;28;20063;-60
2023/05/13 09:35:33;;;;;;;0.80;0.80;;;;;;;;;;4191111;28;20039;-60
2023/05/13 09:37:53;;;;;;;1.45;0.85;;;;;;;;;;4189093;28;20218;-60
2023/05/13 09:40:17;;;;;;;1.02;0.82;;;;;;;;;;4192929;28;20116;-60
2023/05/13 09:42:40;;;;;;;0.75;0.75;;;;;;;;;;4193486;28;20044;-60
2023/05/13 09:45:05;;;;;;;0.80;0.80;;;;;;;;;;4190806;28;20063;-60
2023/05/13 09:47:25;;;;;;;1.77;0.88;;;;;;;;;;4191955;28;20083;-60
2023/05/13 09:49:52;;;;;;;1.50;1.00;;;;;;;;;;4191945;28;20055;-60
2023/05/13 09:52:16;;;;;;;0.80;0.80;;;;;;;;;;4191580;28;20052;-60
2023/05/13 09:54:38;;;;;;;0.80;0.80;;;;;;;;;;4191488;28;20231;-60
2023/05/13 09:57:01;;;;;;;0.80;0.80;;;;;;;;;;4190332;28;20233;-60
2023/05/13 09:59:21;;;;;;;;;;;;;;;;;;4191033;28;20109;-61
2023/05/13 10:01:42;;;;;;;1.67;0.85;;;;;;;;;;4191971;28;20026;-60
2023/05/13 10:04:04;;;;;;;0.80;0.80;;;;;;;;;;4191796;28;20078;-60
2023/05/13 10:06:27;;;;;;;2.00;0.80;;;;;;;;;;4190133;28;20047;-60
2023/05/13 10:08:50;;;;;;;0.80;0.80;;;;;;;;;;4190239;28;20051;-60
2023/05/13 10:11:14;;;;;;;0.75;0.75;;;;;;;;;;4193413;28;20048;-60
2023/05/13 10:13:35;;;;;;;0.70;0.70;;;;;;;;;;4192105;28;20047;-60
2023/05/13 10:15:56;;;;;;;0.70;0.70;;;;;;;;;;4193503;28;20096;-61
2023/05/13 10:18:17;;;;;;;0.80;0.80;;;;;;;;;;4194345;28;20052;-60
2023/05/13 10:20:38;;;;;;;1.05;0.70;;;;;;;;;;4193488;28;20056;-60
2023/05/13 10:22:58;;;;;;;1.35;0.70;;;;;;;;;;4192242;28;20072;-60
2023/05/13 10:25:18;;;;;;;0.70;0.70;;;;;;;;;;4194063;28;20048;-60
2023/05/13 10:27:39;;;;;;;0.80;0.80;;;;;;;;;;4195103;28;20111;-60
2023/05/13 10:30:00;;;;;;;1.90;0.80;;;;;;;;;;4191982;28;20104;-60
2023/05/13 10:32:25;;;;;;;0.77;0.77;;;;;;;;;;4191174;28;20055;-60
2023/05/13 10:34:45;;;;;;;2.40;0.73;;;;;;;;;;4193125;28;20123;-60
2023/05/13 10:37:45;;;;;;;0.80;0.80;;;;;;;;;;4191606;28;20147;-60
2023/05/13 10:40:35;;;;;;;0.70;0.70;;;;;;;;;;4124374;28;20061;-60
2023/05/13 10:43:14;;;;;;;0.80;0.80;;;;;;;;;;4125976;28;20060;-60
2023/05/13 10:45:34;;;;;;;0.77;0.77;;;;;;;;;;4179906;28;20095;-60
2023/05/13 10:47:55;;;;;;;0.70;0.70;;;;;;;;;;4190610;28;20047;-61
2023/05/13 10:50:25;;;;;;;0.80;0.80;;;;;;;;;;4190324;28;20256;-60
2023/05/13 10:52:48;;;;;;;2.17;0.80;;;;;;;;;;4193468;28;20087;-60
2023/05/13 10:55:15;;;;;;;1.95;1.30;;;;;;;;;;4192190;28;20370;-57
2023/05/13 10:57:36;;;;;;;0.80;0.80;;;;;;;;;;4192624;28;20047;-58
2023/05/13 11:00:22;;;;;;;0.80;0.80;;;;;;;;;;4191548;28;20044;-58
2023/05/13 11:02:43;;;;;;;0.80;0.80;;;;;;;;;;4193639;28;20044;-58
2023/05/13 11:05:04;;;;;;;0.93;0.80;;;;;;;;;;4191106;28;20056;-57
2023/05/13 11:07:24;;;;;;;0.93;0.90;;;;;;;;;;4191383;28;20052;-58
2023/05/13 11:09:49;;;;;;;0.80;0.80;;;;;;;;;;4189325;28;20290;-58
2023/05/13 11:12:14;;;;;;;0.85;0.80;;;;;;;;;;4190798;28;20051;-58
2023/05/13 11:14:34;;;;;;;1.52;0.80;;;;;;;;;;4190913;28;20051;-58
2023/05/13 11:17:01;;;;;;;0.75;0.75;;;;;;;;;;4190914;28;20044;-58
2023/05/13 11:19:41;;;;;;;0.80;0.80;;;;;;;;;;4191209;28;20048;-57
2023/05/13 11:22:12;;;;;;;0.80;0.80;;;;;;;;;;4187713;28;20394;-58
2023/05/13 11:24:32;;;;;;;0.75;0.75;;;;;;;;;;4191626;28;20048;-58
2023/05/13 11:26:55;;;;;;;0.82;0.82;;;;;;;;;;4191132;28;20116;-58
2023/05/13 11:29:26;;;;;;;0.80;0.80;;;;;;;;;;4190970;28;20379;-57
2023/05/13 11:31:48;;;;;;;0.80;0.80;;;;;;;;;;4190158;28;20086;-57
2023/05/13 11:34:13;;;;;;;0.80;0.80;;;;;;;;;;4190375;28;20052;-58
2023/05/13 11:36:33;;;;;;;0.80;0.80;;;;;;;;;;4190852;28;20044;-58
2023/05/13 11:38:53;;;;;;;0.80;0.80;;;;;;;;;;4190168;28;20047;-57
2023/05/13 11:41:13;;;;;;;0.82;0.80;;;;;;;;;;4190305;28;20052;-57
2023/05/13 11:43:34;;;;;;;0.80;0.80;;;;;;;;;;4190064;28;20236;-58
2023/05/13 11:45:55;;;;;;;2.28;0.80;;;;;;;;;;4189649;28;20052;-57
2023/05/13 11:48:19;;;;;;;0.80;0.80;;;;;;;;;;4190266;28;20367;-58
2023/05/13 11:50:39;;;;;;;1.10;1.10;;;;;;;;;;4189632;28;20299;-57
2023/05/13 11:53:00;;;;;;;0.90;0.90;;;;;;;;;;4192306;28;20039;-57
2023/05/13 11:55:27;;;;;;;1.33;0.82;;;;;;;;;;4192437;28;20109;-58
2023/05/13 11:57:48;;;;;;;1.42;0.80;;;;;;;;;;4190710;28;20083;-58
2023/05/13 12:00:09;;;;;;;0.80;0.80;;;;;;;;;;4192782;28;20044;-58
2023/05/13 12:02:34;;;;;;;1.85;0.93;;;;;;;;;;4187980;28;20052;-58
2023/05/13 12:04:54;;;;;;;2.38;0.80;;;;;;;;;;4188785;28;20055;-57
2023/05/13 12:07:18;;;;;;;0.80;0.80;;;;;;;;;;4192661;28;20055;-58
2023/05/13 12:09:38;;;;;;;0.88;0.88;;;;;;;;;;4194009;28;20052;-58
2023/05/13 12:11:59;;;;;;;0.80;0.80;;;;;;;;;;4189891;28;20063;-58
2023/05/13 12:14:20;;;;;;;0.80;0.80;;;;;;;;;;4189146;28;20083;-58
2023/05/13 12:16:40;;;;;;;1.00;1.00;;;;;;;;;;4192984;28;20056;-57
2023/05/13 12:19:07;;;;;;;0.80;0.80;;;;;;;;;;4194043;28;20072;-58
2023/05/13 12:21:30;;;;;;;0.80;0.80;;;;;;;;;;4189680;28;20059;-58
2023/05/13 12:23:50;;;;;;;1.40;0.73;;;;;;;;;;4190822;28;20072;-58
2023/05/13 12:26:11;;;;;;;0.80;0.80;;;;;;;;;;4193202;28;20307;-58
2023/05/13 12:28:32;;;;;;;1.50;0.80;;;;;;;;;;4191444;28;20048;-58
2023/05/13 12:30:52;;;;;;;1.30;0.80;;;;;;;;;;4189821;28;20105;-57
2023/05/13 12:33:13;;;;;;;1.17;0.77;;;;;;;;;;4190627;28;20315;-59
2023/05/13 12:35:33;;;;;;;0.80;0.80;;;;;;;;;;4189493;28;20063;-58
2023/05/13 12:38:03;;;;;;;0.77;0.77;;;;;;;;;;4189594;28;20047;-58
2023/05/13 12:40:26;;;;;;;2.15;1.10;;;;;;;;;;4189793;28;20086;-58
2023/05/13 12:42:45;;;;;;;0.77;0.77;;;;;;;;;;4189918;28;20090;-59
2023/05/13 12:45:06;;;;;;;0.80;0.80;;;;;;;;;;4190702;28;20048;-58
2023/05/13 12:47:27;;;;;;;0.70;0.70;;;;;;;;;;4189081;28;20079;-58
2023/05/13 12:49:57;;;;;;;0.90;0.90;;;;;;;;;;4190904;28;20048;-58
2023/05/13 12:52:17;;;;;;;0.80;0.80;;;;;;;;;;4190648;28;20130;-58
2023/05/13 12:54:37;;;;;;;0.80;0.80;;;;;;;;;;4190862;28;20048;-58
2023/05/13 12:56:58;;;;;;;0.98;0.80;;;;;;;;;;4189401;28;20430;-58
2023/05/13 12:59:18;;;;;;;1.33;0.90;;;;;;;;;;4191024;28;20044;-59
2023/05/13 13:01:38;;;;;;;0.90;0.90;;;;;;;;;;4191188;28;20409;-58
2023/05/13 13:03:59;;;;;;;1.00;1.00;;;;;;;;;;4191090;28;20072;-58
2023/05/13 13:06:19;;;;;;;0.90;0.90;;;;;;;;;;4189998;28;20044;-59
2023/05/13 13:08:40;;;;;;;0.80;0.80;;;;;;;;;;4190964;28;20051;-59
2023/05/13 13:11:00;;;;;;;4.15;0.90;;;;;;;;;;4189772;28;20112;-58
2023/05/13 13:13:20;;;;;;;1.10;0.90;;;;;;;;;;4188486;28;20048;-58
2023/05/13 13:15:41;;;;;;;1.00;1.00;;;;;;;;;;4189014;28;20052;-58
2023/05/13 13:18:01;;;;;;;1.08;1.08;;;;;;;;;;4189423;28;20048;-58
2023/05/13 13:20:21;;;;;;;1.02;1.02;;;;;;;;;;4189623;28;20093;-58
2023/05/13 13:22:41;;;;;;;1.13;1.00;;;;;;;;;;4189355;28;20140;-58
2023/05/13 13:25:03;;;;;;;1.65;1.65;;;;;;;;;;4189162;28;20355;-59
2023/05/13 13:27:23;;;;;;;1.10;1.10;;;;;;;;;;4187981;28;20371;-58
2023/05/13 13:29:43;;;;;;;1.08;1.08;;;;;;;;;;4188828;28;20385;-58
2023/05/13 13:32:03;;;;;;;1.02;1.00;;;;;;;;;;4189683;28;20044;-58
2023/05/13 13:34:24;;;;;;;1.40;1.00;;;;;;;;;;4190864;28;20100;-58
2023/05/13 13:36:44;;;;;;;0.90;0.90;;;;;;;;;;4191762;28;20106;-58
2023/05/13 13:39:04;;;;;;;1.25;1.25;;;;;;;;;;4192120;28;20274;-58
2023/05/13 13:41:25;;;;;;;1.00;1.00;;;;;;;;;;4186460;28;20044;-58
2023/05/13 13:43:45;;;;;;;1.55;1.00;;;;;;;;;;4190502;28;20064;-57
2023/05/13 13:46:05;;;;;;;1.17;0.90;;;;;;;;;;4191510;28;20422;-58
2023/05/13 13:48:25;;;;;;;2.00;1.20;;;;;;;;;;4192113;28;20047;-58
2023/05/13 13:50:46;;;;;;;1.00;1.00;;;;;;;;;;4189720;28;20056;-58
2023/05/13 13:53:08;;;;;;;0.90;0.90;;;;;;;;;;4190643;28;20056;-58
2023/05/13 13:55:28;;;;;;;0.90;0.90;;;;;;;;;;4191846;28;20059;-58
2023/05/13 13:57:49;;;;;;;1.00;1.00;;;;;;;;;;4189176;28;20056;-57
2023/05/13 14:00:10;;;;;;;1.10;1.10;;;;;;;;;;4188487;28;20140;-57
2023/05/13 14:02:30;;;;;;;1.00;1.00;;;;;;;;;;4188787;28;20375;-58
2023/05/13 14:04:52;;;;;;;2.92;1.45;;;;;;;;;;4186877;28;20090;-58
2023/05/13 14:07:13;;;;;;;1.27;1.23;;;;;;;;;;4186811;28;20113;-58
2023/05/13 14:09:33;;;;;;;1.65;1.17;;;;;;;;;;4189105;28;20052;-58